Keagan Mabunda

Olheiro - SuperSport United
4 Dez 2028
Segunda-feira
Processo

Personalidade

Adaptabilidade (1) Ambição (5) Controvérsia (10) Lealdade (4) Pressão (15) Profissionalismo (11) Espírito Esportivo (3) Temperamento (20)

Perfil

Estilo de Treinamento Democrático
Licença Continental Pro
Determinação 6
Gestão de Pessoas 10
Motivação 10
Disciplina 4
Satisfação no Trabalho
100%
Fadiga
0%
Função Olheiro
Salário 55.9K p/s
Contrato 14.03.2030

Desempenho

Comportamento Bom
Eficácia do Treinamento
49%
Desenvolvimento do Jogador
55%
Prevenção de Lesões
50%
Implementação Tática
50%

Eventos Recentes

Participou de uma reunião de recrutamento agora
Participou de uma reunião de recrutamento 7d atrás
Participou de uma reunião de recrutamento 7d atrás
Avaliou um jogador 7d atrás
Observou uma partida 7d atrás
Observou uma partida 14d atrás
Avaliou um jogador 14d atrás
Avaliou um jogador 14d atrás

Monitorando agora

93
Jogador Clube Status Habilidade Confiança Observado Última observação Último voto
Agustín Morales Estudiantes Ativo 117 / 102 40% 2 22.11.2028 -
Antonio Galeano Remo Stars Ativo 136 / 129 40% 6 22.11.2028 -
Carlos Cantillo Jaguares Ativo 124 / 120 40% 3 22.11.2028 -
Nicolás Retamar Ferro Carril Oeste Ativo 123 / 125 40% 2 19.11.2028 -
Pablo Cardona Cortulua Ativo 110 / 117 40% 2 19.11.2028 -
Enzo Hoyos Ferro Carril Oeste Ativo 115 / 110 40% 1 19.11.2028 -
Luca Langoni Columbus Crew Ativo 132 / 123 40% 3 17.11.2028 -
Paul Samson Plateau United Ativo 112 / 107 40% 2 17.11.2028 -
Jonathan Farías Torpedo Kutaisi Ativo 103 / 107 40% 5 14.11.2028 -
Diego Gaitán Maipú Ativo 114 / 109 40% 5 13.11.2028 -
Amin Boudri Los Angeles Football Club Ativo 128 / 121 40% 2 13.11.2028 -
Tomás Chancalay New England Revolution Ativo 130 / 130 40% 1 13.11.2028 -
José Barreto Quilmes Ativo 120 / 107 40% 1 12.11.2028 -
Luis Palacios Once Caldas Ativo 117 / 124 40% 2 10.11.2028 -
Yuber Quiñónes Patriotas Ativo 111 / 125 40% 2 10.11.2028 -
Gastón Moreyra Almirante Brown Ativo 118 / 120 40% 1 09.11.2028 -
Lautaro Disanto Defensores Unidos Ativo 110 / 117 40% 2 08.11.2028 -
Gonzalo Plata Nacional Ativo 136 / 134 40% 3 08.11.2028 -
Alex Luna Instituto Ativo 145 / 129 40% 1 06.11.2028 -
Ramiro Hernandes Belgrano Ativo 124 / 119 40% 1 06.11.2028 -
Aarón Molinas Defensa y Justicia Ativo 130 / 128 40% 1 24.10.2028 -
Juan Sebastián Herrera Deportivo La Guaira Ativo 106 / 120 40% 2 21.10.2028 -
Juan Velázquez Belgrano Ativo 127 / 132 40% 2 21.10.2028 -
Patricio Moyano Defensores Ativo 119 / 121 40% 1 19.10.2028 -
Federico Versaci Talleres Ativo 120 / 104 40% 1 17.10.2028 -
Tomás Pozzo Godoy Cruz Ativo 114 / 117 40% 1 17.10.2028 -
Vicente Poggi Godoy Cruz Ativo 116 / 124 40% 1 11.10.2028 -
Nahuel Curcio Colón Ativo 110 / 113 40% 1 11.10.2028 -
Franco Vedoya Central Norte Ativo 111 / 116 40% 1 09.10.2028 -
Alejo Dramisino Atlanta Ativo 123 / 123 40% 1 09.10.2028 -
Santiago Sala Güemes Ativo 120 / 122 40% 2 08.10.2028 -
John Córdoba Millonarios Ativo 127 / 115 40% 1 07.10.2028 -
Mauro Valiente Estudiantes Ativo 121 / 114 40% 1 07.10.2028 -
Matías Viguet Maipú Ativo 126 / 111 40% 1 06.10.2028 -
Giorgi Arabidze Torpedo Kutaisi Ativo 120 / 108 40% 1 05.10.2028 -
Daniel Barrea Godoy Cruz Perdido 136 / 119 40% 1 28.08.2028 -
Jacques Ekomié Wrexham Ativo 149 / 137 40% 1 24.07.2028 -
Malik Mothersille Stockport County Ativo 130 / 117 40% 1 24.07.2028 -
Babis Kostoulas Oxford United Ativo 147 / 142 40% 1 02.06.2028 -
Zian Flemming Ipswich Town Perdido 129 / 128 40% 1 02.06.2028 -
Ante Crnac Bristol Rovers Ativo 125 / 121 40% 2 31.05.2028 Mais informações
Johnny Kenny Preston Ativo 121 / 115 40% 1 31.05.2028 -
Charlie Kelman Barnsley Ativo 118 / 118 40% 1 31.05.2028 -
Thierry Small Preston Ativo 120 / 121 40% 1 24.01.2028 -
Aune Heggebø West Bromwich Albion Ativo 120 / 132 40% 1 01.01.2028 -
Augusto Berrondo Tristán Suárez Ativo 117 / 108 40% 1 31.12.2027 -
Bongani Zungu Ajax Cape Town Ativo 119 / 132 40% 4 29.05.2027 -
Gaetano Castrovilli Cesena Ativo 122 / 122 40% 1 29.05.2027 -
Martin Baturina Como Ativo 151 / 140 40% 1 28.05.2027 -
Pontus Almqvist Parma Ativo 121 / 136 40% 1 26.05.2027 -
Hannibal Burnley Ativo 119 / 136 40% 2 24.05.2027 -
Stiven Shpendi Empoli Ativo 120 / 119 40% 1 24.05.2027 -
Enrico Delprato Parma Ativo 146 / 137 40% 1 23.05.2027 -
Ilyas Ansah Hull City Ativo 132 / 127 40% 3 20.05.2027 -
Oswin Appollis Orlando Pirates Ativo 116 / 127 40% 6 15.05.2027 -
Georgie Gent Barnsley Ativo 118 / 110 40% 1 12.05.2027 -
Mathys Tel Tottenham Ativo 135 / 146 40% 3 30.04.2027 -
Pablo García Gijón Ativo 94 / 108 40% 1 28.04.2027 -
Ferland Mendy Real Madrid Ativo 132 / 150 40% 1 20.04.2027 -
Bradley Cross Kaizer Chiefs Ativo 113 / 105 40% 2 18.04.2027 -
Masindi Nemtajela Orlando Pirates Ativo 104 / 104 40% 1 18.04.2027 -
Iker Pozo Rodina Ativo 103 / 118 40% 1 16.04.2027 -
Thalente Mbatha Orlando Pirates Ativo 118 / 111 40% 1 15.04.2027 -
Brooklyn Poggenpoel Maritzburg United Ativo 112 / 110 40% 1 14.04.2027 -
Ramazan Gadjimuradov Chelyabinsk Ativo 106 / 104 40% 1 10.04.2027 -
Yeangel Montero Naxxar Lions Ativo 116 / 96 40% 1 06.04.2027 -
Patrick Maswanganyi Orlando Pirates Ativo 111 / 120 40% 1 05.04.2027 -
Ronaldo Maarman University of Pretoria Ativo 115 / 99 40% 1 05.04.2027 -
Pavel Maslov Chaika Ativo 97 / 104 40% 1 03.04.2027 -
Mandla Kekana Ajax Cape Town Ativo 117 / 116 40% 4 01.04.2027 -
Ilja Agapov Ufa Ativo 99 / 124 40% 1 29.03.2027 -
David Ozoh Derby County Ativo 122 / 133 40% 1 25.03.2027 -
Manu Morlanes Mallorca Ativo 148 / 138 40% 1 01.01.2027 -
Álvaro Carreras Real Madrid Ativo 157 / 152 40% 1 29.12.2026 -
Jay Stansfield Birmingham Ativo 118 / 121 40% 1 26.12.2026 -
Thomas Carrique Andorra Ativo 103 / 128 40% 1 23.12.2026 -
Denzel Jubitana Neftchi Ativo 112 / 113 40% 1 22.12.2026 -
Reda Khadra Qarabag Ativo 118 / 140 40% 2 17.12.2026 -
Romelle Donovan Brentford Ativo 106 / 122 40% 1 08.12.2026 -
Tyrhys Dolan Espanyol Ativo 127 / 148 40% 2 04.12.2026 -
Johnly Yfeko Exeter City Ativo 107 / 124 40% 2 26.11.2026 -
Marcelo Allende Mamelodi Sundowns Ativo 126 / 132 40% 2 25.11.2026 -
Suleiman Camara Slovan Bratislava Ativo 124 / 108 40% 1 24.11.2026 -
Sandi Zajc NK Domzale Ativo 99 / 108 40% 1 24.11.2026 -
Ryan Stirk Chesterfield Ativo 116 / 91 40% 1 22.11.2026 -
Dean Campbell Northampton Town Ativo 101 / 111 40% 2 21.11.2026 -
Petar Stanić Ludogorets Ativo 140 / 135 40% 1 01.11.2026 -
Alexis Steimbach Gimnasia La Plata Ativo 118 / 124 40% 1 18.10.2026 -
Jordan Williams Portsmouth Ativo 113 / 115 40% 1 15.10.2026 -
Jay Matete Milton Keynes Dons Ativo 114 / 99 40% 1 11.10.2026 -
Josh Benson Rotherham United Ativo 118 / 113 40% 1 07.10.2026 -
Arthur Okonkwo Wrexham Ativo 101 / 109 40% 1 02.08.2026 -
Balázs Tóth Blackburn Rovers Ativo 116 / 113 40% 1 02.08.2026 -